Terminal Aerodrome Forecast
Issued by NWS Chicago, IL

Home | Current Version | Previous Version | Graphics & Text | Print | Product List | Glossary On
Versions: 1 2 3 4 5 6 7 8 9 10 11 12 13 14 15 16 17 18 19 20 21 22 23 24 25
416
FTUS43 KLOT 151452 AAA
TAFRFD
TAF AMD
KRFD 151452Z 1515/1612 VRB03KT P6SM BKN120 BKN250
     FM152000 16004KT P6SM OVC120
     FM160900 12004KT P6SM SCT020 BKN060 PROB30 1610/1612 5SM
      -FZRAPL BKN020=

USA.gov is the U.S. government's official web portal to all federal, state and local government web resources and services.